Time;durP1;ratioP1;P1;durP2;ratioP2;P2;SDS_P1;SDS_P2;PMS_P1;PMS_P2;Temp;Humidity;BMP_temperature;BMP_pressure;BME280_temperature;BME280_humidity;BME280_pressure;Samples;Min_cycle;Max_cycle;Signal;HPM_P1;HPM_P2
2022/05/28 00:01:49;;;;;;;15.47;6.40;;;;;;;23.44;66.11;99164.38;5092988;28;20296;-75
2022/05/28 00:04:16;;;;;;;9.70;5.90;;;;;;;23.42;66.29;99166.56;5093028;28;20255;-74
2022/05/28 00:06:43;;;;;;;7.50;5.53;;;;;;;23.41;66.43;99162.25;5093250;28;20197;-75
2022/05/28 00:09:09;;;;;;;5.87;5.33;;;;;;;23.41;66.27;99164.97;5092484;28;20704;-75
2022/05/28 00:11:41;;;;;;;9.63;6.07;;;;;;;23.39;66.26;99161.72;5092866;28;20226;-73
2022/05/28 00:14:08;;;;;;;7.83;5.90;;;;;;;23.39;66.57;99155.47;5092713;28;20236;-74
2022/05/28 00:16:36;;;;;;;7.73;5.80;;;;;;;23.32;67.03;99155.81;5092730;28;20195;-73
2022/05/28 00:19:03;;;;;;;7.60;5.80;;;;;;;23.31;67.43;99148.78;5092551;28;20194;-74
2022/05/28 00:21:30;;;;;;;9.73;5.80;;;;;;;23.28;66.94;99146.63;5092360;28;20257;-73
2022/05/28 00:23:58;;;;;;;5.93;5.43;;;;;;;23.20;67.01;99141.84;5092277;28;20250;-74
2022/05/28 00:26:25;;;;;;;6.50;5.83;;;;;;;23.12;67.41;99136.22;5092611;28;20196;-74
2022/05/28 00:28:53;;;;;;;11.27;6.27;;;;;;;23.00;67.86;99135.78;5092713;28;20250;-73
2022/05/28 00:31:20;;;;;;;7.40;6.30;;;;;;;22.94;68.03;99134.19;5092545;28;20253;-74
2022/05/28 00:33:47;;;;;;;9.67;6.63;;;;;;;22.87;68.32;99125.63;5091905;28;20226;-75
2022/05/28 00:36:14;;;;;;;11.40;6.10;;;;;;;22.82;68.79;99118.31;5091560;28;20254;-74
2022/05/28 00:38:43;;;;;;;8.07;6.07;;;;;;;22.84;68.69;99115.34;5092123;28;20191;-75
2022/05/28 00:41:11;;;;;;;6.23;5.60;;;;;;;22.85;68.87;99122.38;5093149;28;20200;-74
2022/05/28 00:43:40;;;;;;;10.93;5.77;;;;;;;22.86;68.79;99130.22;5092226;28;20732;-73
2022/05/28 00:46:12;;;;;;;11.93;6.17;;;;;;;22.86;69.29;99127.50;5092399;28;20191;-74
2022/05/28 00:48:46;;;;;;;10.50;6.30;;;;;;;22.77;69.77;99134.63;5092647;28;20183;-73
2022/05/28 00:51:18;;;;;;;9.57;6.00;;;;;;;22.72;69.96;99129.25;5092585;28;20227;-75
2022/05/28 00:53:45;;;;;;;10.13;5.87;;;;;;;22.66;70.30;99132.28;5092759;28;20245;-74
2022/05/28 00:56:12;;;;;;;8.30;6.50;;;;;;;22.61;70.22;99133.13;5092201;28;20188;-74
2022/05/28 00:58:39;;;;;;;12.13;6.50;;;;;;;22.59;70.29;99134.50;5092142;28;20196;-74
2022/05/28 01:01:10;;;;;;;47.27;7.10;;;;;;;22.57;70.39;99136.66;5092056;28;20208;-74
2022/05/28 01:03:50;;;;;;;10.80;5.93;;;;;;;22.53;70.64;99132.91;5092054;28;20189;-74
2022/05/28 01:06:25;;;;;;;8.17;6.57;;;;;;;22.45;70.80;99128.88;5092306;28;20180;-74
2022/05/28 01:08:59;;;;;;;9.60;6.00;;;;;;;22.42;71.07;99140.25;5092259;28;20572;-75
2022/05/28 01:11:32;;;;;;;9.70;6.70;;;;;;;22.44;71.10;99132.69;5092096;28;20560;-75
2022/05/28 01:14:05;;;;;;;10.97;6.97;;;;;;;22.45;71.10;99141.59;5093138;28;20272;-75
2022/05/28 01:16:38;;;;;;;11.97;6.17;;;;;;;22.45;71.25;99139.72;5091974;28;20218;-74
2022/05/28 01:19:22;;;;;;;8.87;6.47;;;;;;;22.48;71.85;99143.78;5092794;28;20189;-74
2022/05/28 01:21:58;;;;;;;7.33;6.27;;;;;;;22.44;71.43;99143.50;5091992;28;20193;-73
2022/05/28 01:24:34;;;;;;;7.57;6.43;;;;;;;22.41;71.46;99141.34;5091796;28;20241;-74
2022/05/28 01:27:06;;;;;;;8.40;6.90;;;;;;;22.45;71.91;99138.88;5091848;28;20272;-72
2022/05/28 01:29:39;;;;;;;9.57;7.30;;;;;;;22.57;70.88;99142.09;5091744;28;20711;-73
2022/05/28 01:32:07;;;;;;;12.10;7.47;;;;;;;22.58;71.21;99141.81;5091891;28;20189;-73
2022/05/28 01:34:34;;;;;;;11.57;7.10;;;;;;;22.62;70.70;99140.16;5091733;28;20241;-72
2022/05/28 01:37:02;;;;;;;13.83;6.67;;;;;;;22.66;70.79;99143.13;5091566;28;20223;-73
2022/05/28 01:39:30;;;;;;;13.03;7.00;;;;;;;22.68;70.73;99143.63;5089542;28;20195;-72
2022/05/28 01:41:59;;;;;;;10.77;7.27;;;;;;;22.69;70.57;99146.06;5091709;28;20209;-73
2022/05/28 01:44:28;;;;;;;12.60;7.10;;;;;;;22.69;70.53;99143.34;5083521;28;20576;-73
2022/05/28 01:46:55;;;;;;;12.73;7.07;;;;;;;22.62;70.56;99142.88;5070966;28;20725;-74
2022/05/28 01:49:24;;;;;;;12.67;7.80;;;;;;;22.48;71.57;99133.78;5070093;28;20282;-74
2022/05/28 01:51:54;;;;;;;12.70;7.83;;;;;;;22.39;71.60;99130.03;5071163;28;20243;-74
2022/05/28 01:54:24;;;;;;;14.97;8.00;;;;;;;22.37;72.53;99129.47;5072688;28;20673;-74
2022/05/28 01:56:53;;;;;;;13.20;7.10;;;;;;;22.43;72.18;99133.78;5091271;28;20241;-74
2022/05/28 01:59:23;;;;;;;9.37;7.70;;;;;;;22.41;72.55;99133.25;5090682;28;20200;-73
2022/05/28 02:01:51;;;;;;;14.73;7.57;;;;;;;22.45;72.48;99128.88;5091228;28;20257;-74
2022/05/28 02:04:18;;;;;;;13.30;7.40;;;;;;;22.44;71.92;99121.84;5090800;28;20613;-73
2022/05/28 02:06:44;;;;;;;11.17;6.90;;;;;;;22.39;72.30;99119.19;5091079;28;20192;-74
2022/05/28 02:09:14;;;;;;;10.27;7.00;;;;;;;22.31;73.11;99122.50;5091076;28;20195;-74
2022/05/28 02:11:57;;;;;;;10.23;7.97;;;;;;;22.25;73.28;99112.78;5090957;28;20313;-74
2022/05/28 02:14:31;;;;;;;11.07;6.57;;;;;;;22.19;73.53;99113.09;5092224;28;20184;-73
2022/05/28 02:17:09;;;;;;;12.00;7.13;;;;;;;22.09;73.71;99115.88;5094956;28;20235;-73
2022/05/28 02:19:45;;;;;;;7.87;7.07;;;;;;;22.03;73.51;99123.19;5094374;28;20187;-73
2022/05/28 02:22:19;;;;;;;12.13;7.13;;;;;;;22.00;74.01;99112.94;5094827;28;20241;-76
2022/05/28 02:24:51;;;;;;;9.07;8.00;;;;;;;21.97;74.46;99112.69;5094596;28;20731;-73
2022/05/28 02:27:21;;;;;;;14.07;7.93;;;;;;;21.97;74.57;99118.88;5094347;28;20187;-73
2022/05/28 02:29:48;;;;;;;11.30;7.27;;;;;;;21.99;74.97;99114.03;5094801;28;20208;-73
2022/05/28 02:32:19;;;;;;;10.27;6.93;;;;;;;22.05;74.67;99128.34;5094519;28;20261;-73
2022/05/28 02:34:47;;;;;;;8.00;7.30;;;;;;;22.00;74.53;99126.44;5095718;28;20183;-72
2022/05/28 02:37:14;;;;;;;14.20;9.03;;;;;;;21.86;74.57;99130.88;5094706;28;20192;-73
2022/05/28 02:39:41;;;;;;;8.33;7.30;;;;;;;21.77;74.77;99127.13;5094475;28;20235;-72
2022/05/28 02:42:08;;;;;;;15.97;8.00;;;;;;;21.72;75.16;99135.22;5094459;28;20191;-72
2022/05/28 02:44:35;;;;;;;8.90;8.07;;;;;;;21.74;75.61;99135.78;5094475;28;20191;-72
2022/05/28 02:47:02;;;;;;;9.40;8.43;;;;;;;21.78;75.20;99139.56;5093993;28;20293;-72
2022/05/28 02:49:31;;;;;;;10.27;7.27;;;;;;;21.81;75.25;99141.69;5093513;28;20316;-75
2022/05/28 02:52:00;;;;;;;10.37;7.20;;;;;;;21.82;75.13;99145.22;5093562;28;20184;-74
2022/05/28 02:54:27;;;;;;;11.53;7.80;;;;;;;21.83;75.11;99142.22;5093910;28;20608;-74
2022/05/28 02:56:55;;;;;;;15.27;9.10;;;;;;;21.84;75.33;99148.47;5094134;28;20192;-76
2022/05/28 02:59:22;;;;;;;13.27;7.70;;;;;;;21.79;75.58;99151.97;5094350;28;20200;-73
2022/05/28 03:01:48;;;;;;;23.10;7.57;;;;;;;21.83;75.53;99147.63;5094387;28;20188;-73
2022/05/28 03:04:15;;;;;;;12.80;8.20;;;;;;;21.87;75.68;99151.41;5093911;28;20188;-74
2022/05/28 03:06:43;;;;;;;9.53;7.73;;;;;;;21.97;75.21;99148.66;5093858;28;20663;-73
2022/05/28 03:09:11;;;;;;;9.90;7.53;;;;;;;22.08;74.93;99150.22;5094024;28;20245;-73
2022/05/28 03:11:39;;;;;;;10.90;7.47;;;;;;;22.21;74.92;99149.59;5094013;28;20588;-74
2022/05/28 03:14:06;;;;;;;10.50;8.27;;;;;;;22.29;73.56;99151.72;5093637;28;20199;-74
2022/05/28 03:16:33;;;;;;;13.67;8.50;;;;;;;22.37;73.13;99166.59;5093679;28;20187;-74
2022/05/28 03:19:00;;;;;;;11.33;8.00;;;;;;;22.41;73.17;99165.72;5093541;28;20660;-74
2022/05/28 03:21:26;;;;;;;12.43;8.37;;;;;;;22.50;73.00;99180.31;5093731;28;20195;-73
2022/05/28 03:23:54;;;;;;;12.37;7.67;;;;;;;22.59;72.93;99173.22;5093809;28;20199;-73
2022/05/28 03:26:23;;;;;;;12.30;8.47;;;;;;;22.71;72.46;99170.94;5093065;28;20736;-73
2022/05/28 03:28:51;;;;;;;16.07;8.80;;;;;;;22.79;72.14;99167.63;5093707;28;20223;-72
2022/05/28 03:31:18;;;;;;;13.30;8.03;;;;;;;22.80;72.76;99169.28;5093049;28;20219;-73
2022/05/28 03:33:45;;;;;;;15.70;8.13;;;;;;;22.87;72.25;99175.16;5093906;28;20196;-73
2022/05/28 03:36:13;;;;;;;15.53;8.50;;;;;;;22.95;71.92;99171.84;5093542;28;20188;-73
2022/05/28 03:38:39;;;;;;;11.63;8.70;;;;;;;22.95;71.68;99182.69;5093133;28;20229;-73
2022/05/28 03:41:07;;;;;;;9.47;8.00;;;;;;;22.88;72.51;99187.63;5093305;28;20659;-72
2022/05/28 03:43:34;;;;;;;16.27;8.10;;;;;;;22.89;72.59;99181.13;5093203;28;20200;-73
2022/05/28 03:46:02;;;;;;;10.53;8.47;;;;;;;22.89;71.86;99191.94;5093581;28;20284;-73
2022/05/28 03:48:30;;;;;;;17.87;8.40;;;;;;;22.85;71.86;99193.63;5093403;28;20197;-73
2022/05/28 03:50:57;;;;;;;8.63;7.73;;;;;;;22.87;71.26;99202.25;5092927;28;20236;-73
2022/05/28 03:53:24;;;;;;;18.07;7.60;;;;;;;22.89;71.17;99201.97;5092796;28;20198;-73
2022/05/28 03:55:51;;;;;;;10.90;7.37;;;;;;;22.84;69.46;99202.84;5092874;28;20258;-74
2022/05/28 03:58:19;;;;;;;11.37;7.20;;;;;;;22.79;68.87;99210.97;5092822;28;20983;-75
2022/05/28 04:00:46;;;;;;;13.87;6.60;;;;;;;22.83;68.02;99219.38;5092982;28;20262;-74
2022/05/28 04:03:13;;;;;;;9.87;7.73;;;;;;;23.00;68.10;99219.78;5092807;28;20200;-73
2022/05/28 04:05:40;;;;;;;13.07;7.67;;;;;;;23.47;67.20;99228.88;5092775;28;20198;-73
2022/05/28 04:08:08;;;;;;;13.83;7.70;;;;;;;23.93;67.08;99221.88;5092891;28;20258;-75
2022/05/28 04:10:35;;;;;;;12.13;7.90;;;;;;;24.13;66.74;99227.09;5092769;28;20275;-72
2022/05/28 04:13:01;;;;;;;13.37;7.50;;;;;;;24.10;67.88;99232.28;5092317;28;20258;-74
2022/05/28 04:15:31;;;;;;;9.87;8.87;;;;;;;24.16;68.04;99226.50;5092439;28;20192;-73
2022/05/28 04:17:58;;;;;;;12.67;8.77;;;;;;;24.07;68.58;99228.25;5092396;28;20665;-72
2022/05/28 04:20:25;;;;;;;9.80;8.63;;;;;;;24.26;69.05;99223.66;5092461;28;20194;-72
2022/05/28 04:22:52;;;;;;;12.13;9.50;;;;;;;24.84;67.21;99238.63;5092039;28;20666;-72
2022/05/28 04:25:19;;;;;;;9.03;8.20;;;;;;;25.48;64.64;99250.69;5092500;28;20194;-72
2022/05/28 04:27:45;;;;;;;13.60;8.60;;;;;;;25.83;63.18;99244.56;5092681;28;20238;-73
2022/05/28 04:30:13;;;;;;;20.53;8.87;;;;;;;25.95;62.54;99263.97;5092476;28;20321;-73
2022/05/28 04:32:41;;;;;;;13.57;8.60;;;;;;;26.11;61.53;99265.31;5092569;28;20252;-72
2022/05/28 04:35:08;;;;;;;13.57;7.43;;;;;;;26.60;59.23;99260.75;5091903;28;20708;-73
2022/05/28 04:37:35;;;;;;;9.83;8.07;;;;;;;26.88;58.50;99261.50;5090985;28;20191;-72
2022/05/28 04:40:02;;;;;;;9.03;8.13;;;;;;;27.19;57.40;99256.94;5092237;28;20252;-72
2022/05/28 04:42:28;;;;;;;8.80;7.97;;;;;;;27.30;56.47;99252.84;5092286;28;20226;-74
2022/05/28 04:44:56;;;;;;;7.73;7.13;;;;;;;27.39;56.66;99242.81;5092800;28;20187;-75
2022/05/28 04:47:23;;;;;;;8.10;7.33;;;;;;;27.86;54.98;99250.34;5092497;28;20195;-69
2022/05/28 04:49:51;;;;;;;7.40;6.63;;;;;;;28.14;54.50;99255.25;5091666;28;20759;-71
2022/05/28 04:52:18;;;;;;;10.93;7.00;;;;;;;28.58;53.45;99248.84;5092552;28;20191;-71
2022/05/28 04:54:44;;;;;;;8.90;6.57;;;;;;;29.21;51.57;99257.25;5091816;28;20249;-71
2022/05/28 04:57:11;;;;;;;8.47;6.90;;;;;;;29.74;49.14;99256.84;5091897;28;20195;-73
2022/05/28 04:59:38;;;;;;;8.40;6.80;;;;;;;30.13;48.17;99243.63;5091888;28;20191;-71
2022/05/28 05:02:05;;;;;;;10.30;6.13;;;;;;;30.32;47.96;99241.31;5092019;28;20252;-71
2022/05/28 05:04:32;;;;;;;8.60;6.73;;;;;;;30.60;46.84;99236.94;5092248;28;20194;-71
2022/05/28 05:07:00;;;;;;;13.90;6.77;;;;;;;30.77;44.81;99247.81;5091787;28;20663;-72
2022/05/28 05:09:27;;;;;;;10.10;6.10;;;;;;;30.84;45.21;99242.59;5091629;28;20196;-72
2022/05/28 05:11:54;;;;;;;10.47;6.80;;;;;;;30.98;44.54;99240.38;5091529;28;20276;-74
2022/05/28 05:14:20;;;;;;;10.87;6.20;;;;;;;31.12;45.31;99238.16;5091660;28;20650;-73
2022/05/28 05:16:47;;;;;;;7.77;6.93;;;;;;;31.87;42.01;99243.25;5091514;28;20191;-71
2022/05/28 05:19:14;;;;;;;10.70;7.13;;;;;;;32.09;41.32;99228.25;5091583;28;20191;-73
2022/05/28 05:21:40;;;;;;;7.70;6.80;;;;;;;32.61;39.86;99231.88;5091693;28;20199;-71
2022/05/28 05:24:09;;;;;;;12.37;7.47;;;;;;;32.91;39.09;99227.75;5092026;28;20195;-73
2022/05/28 05:26:35;;;;;;;10.07;6.37;;;;;;;33.07;37.97;99218.38;5091213;28;20245;-72
2022/05/28 05:29:02;;;;;;;8.73;6.30;;;;;;;33.54;36.89;99223.22;5088350;28;20661;-73
2022/05/28 05:31:29;;;;;;;9.50;6.17;;;;;;;33.94;36.44;99221.13;5091051;28;20269;-72
2022/05/28 05:33:56;;;;;;;11.00;6.63;;;;;;;34.26;35.69;99222.72;5090109;28;20183;-74
2022/05/28 05:36:22;;;;;;;11.33;7.00;;;;;;;34.60;34.46;99221.94;5091219;28;20244;-71
2022/05/28 05:38:49;;;;;;;16.67;7.45;;;;;;;34.79;34.28;99225.56;5089403;28;20196;-73
2022/05/28 05:41:17;;;;;;;13.63;6.85;;;;;;;34.95;33.94;99222.75;5091398;28;20253;-73
2022/05/28 05:43:44;;;;;;;12.48;6.50;;;;;;;34.85;34.25;99231.59;5091261;28;20659;-72
2022/05/28 05:46:10;;;;;;;8.40;6.47;;;;;;;34.42;35.27;99237.31;5091026;28;20256;-73
2022/05/28 05:48:37;;;;;;;6.43;5.65;;;;;;;34.44;35.45;99238.56;5089861;28;20188;-74
2022/05/28 05:51:08;;;;;;;11.40;6.60;;;;;;;34.61;36.24;99229.06;5091798;28;20324;-74
2022/05/28 05:53:35;;;;;;;9.93;5.78;;;;;;;34.63;35.67;99238.59;5092556;28;20199;-73
2022/05/28 05:56:01;;;;;;;8.25;5.85;;;;;;;34.40;36.07;99234.91;5093866;28;20261;-73
2022/05/28 05:58:29;;;;;;;8.60;6.35;;;;;;;34.22;36.03;99238.38;5093211;28;20769;-71
2022/05/28 06:00:56;;;;;;;8.07;6.75;;;;;;;34.13;35.88;99241.31;5092557;28;20264;-71
2022/05/28 06:03:23;;;;;;;7.68;6.28;;;;;;;34.25;36.23;99243.19;5089709;28;20249;-74
2022/05/28 06:05:50;;;;;;;7.60;6.70;;;;;;;34.46;35.54;99246.47;5093162;28;20209;-73
2022/05/28 06:08:16;;;;;;;7.85;6.53;;;;;;;34.29;35.82;99249.59;5093282;28;20196;-75
2022/05/28 06:10:45;;;;;;;11.70;6.60;;;;;;;33.89;36.88;99257.25;5093306;28;20211;-76
2022/05/28 06:13:11;;;;;;;13.32;6.70;;;;;;;33.49;37.71;99259.28;5093198;28;20278;-72
2022/05/28 06:15:39;;;;;;;8.40;6.70;;;;;;;33.30;38.35;99254.41;5092489;28;20196;-72
2022/05/28 06:18:07;;;;;;;12.77;6.50;;;;;;;33.54;38.36;99253.53;5092839;28;20784;-70
2022/05/28 06:20:34;;;;;;;10.10;6.30;;;;;;;33.76;37.82;99256.47;5093125;28;20199;-71
2022/05/28 06:23:01;;;;;;;9.38;6.50;;;;;;;34.00;37.55;99266.59;5093131;28;20252;-72
2022/05/28 06:25:28;;;;;;;7.85;6.38;;;;;;;33.98;37.87;99260.63;5093303;28;20195;-73
2022/05/28 06:27:55;;;;;;;11.07;6.67;;;;;;;34.03;37.84;99268.63;5092850;28;20195;-73
2022/05/28 06:30:22;;;;;;;13.00;6.25;;;;;;;34.27;37.10;99265.69;5092924;28;20256;-72
2022/05/28 06:32:50;;;;;;;10.68;6.10;;;;;;;34.50;36.81;99261.16;5092468;28;20238;-72
2022/05/28 06:35:17;;;;;;;9.70;6.55;;;;;;;34.34;36.12;99263.13;5093140;28;20574;-72
2022/05/28 06:37:44;;;;;;;18.85;6.57;;;;;;;34.32;35.56;99259.91;5093720;28;20196;-72
2022/05/28 06:40:11;;;;;;;14.55;6.38;;;;;;;34.37;35.68;99256.91;5091966;28;20187;-72
2022/05/28 06:42:38;;;;;;;12.10;5.85;;;;;;;34.45;34.78;99259.47;5092528;28;20240;-72
2022/05/28 06:45:05;;;;;;;11.60;5.97;;;;;;;34.46;33.96;99254.75;5093183;28;20191;-72
2022/05/28 06:47:32;;;;;;;8.52;6.30;;;;;;;34.07;34.33;99258.47;5093101;28;20195;-72
2022/05/28 06:52:45;;;;;;;15.13;6.40;;;;;;;33.26;37.44;99246.06;5093253;28;20206;-73
2022/05/28 06:55:12;;;;;;;10.45;6.13;;;;;;;33.25;37.20;99241.72;5093497;28;20188;-73
2022/05/28 06:57:39;;;;;;;9.93;6.00;;;;;;;33.50;36.87;99247.09;5093646;28;20668;-73
2022/05/28 07:00:07;;;;;;;10.45;5.82;;;;;;;33.75;36.66;99245.81;5093338;28;20269;-72
2022/05/28 07:02:33;;;;;;;13.65;5.75;;;;;;;33.91;36.54;99238.38;5093523;28;20674;-72
2022/05/28 07:05:01;;;;;;;11.43;9.30;;;;;;;34.02;36.32;99226.47;5093313;28;20663;-72
2022/05/28 07:07:28;;;;;;;10.93;7.05;;;;;;;34.03;35.98;99235.53;5093302;28;20245;-72
2022/05/28 07:09:55;;;;;;;10.95;6.88;;;;;;;33.95;35.89;99222.72;5093952;28;20248;-72
2022/05/28 07:12:21;;;;;;;21.75;6.15;;;;;;;34.07;35.86;99220.69;5093212;28;20277;-73
2022/05/28 07:14:48;;;;;;;20.67;6.53;;;;;;;34.19;35.63;99217.03;5093047;28;20226;-72
2022/05/28 07:17:15;;;;;;;9.15;5.53;;;;;;;34.35;35.24;99210.38;5093177;28;20213;-73
2022/05/28 07:19:41;;;;;;;16.45;6.00;;;;;;;34.48;34.10;99208.28;5093222;28;20241;-72
2022/05/28 07:22:10;;;;;;;10.15;5.93;;;;;;;34.31;34.99;99203.16;5093684;28;20286;-72
2022/05/28 07:24:37;;;;;;;11.10;5.82;;;;;;;34.38;34.82;99198.63;5093580;28;20570;-72
2022/05/28 07:27:04;;;;;;;10.05;6.30;;;;;;;34.63;34.08;99193.63;5093597;28;20200;-72
2022/05/28 07:29:30;;;;;;;10.65;6.22;;;;;;;34.73;34.13;99195.81;5093445;28;20253;-72
2022/05/28 07:31:57;;;;;;;10.68;6.15;;;;;;;34.94;34.88;99196.31;5093173;28;20219;-72
2022/05/28 07:34:24;;;;;;;12.90;7.05;;;;;;;34.95;34.29;99198.69;5092996;28;20241;-72
2022/05/28 07:36:50;;;;;;;23.38;9.43;;;;;;;34.91;34.12;99197.03;5093191;28;20195;-72
2022/05/28 07:39:18;;;;;;;11.15;6.03;;;;;;;34.68;34.53;99187.81;5093108;28;20191;-72
2022/05/28 07:41:45;;;;;;;8.77;6.30;;;;;;;34.37;34.66;99180.44;5093120;28;20621;-72
2022/05/28 07:44:12;;;;;;;8.15;5.72;;;;;;;34.56;34.04;99172.22;5092907;28;20252;-72
2022/05/28 07:46:39;;;;;;;11.85;6.13;;;;;;;34.81;33.83;99172.75;5092566;28;20191;-72
2022/05/28 07:49:06;;;;;;;9.55;5.80;;;;;;;35.03;32.93;99167.28;5092727;28;20191;-71
2022/05/28 07:51:33;;;;;;;6.93;6.25;;;;;;;35.05;33.52;99164.97;5093067;28;20215;-71
2022/05/28 07:54:00;;;;;;;18.05;6.40;;;;;;;35.35;33.67;99151.38;5092372;28;20210;-71
2022/05/28 07:56:29;;;;;;;12.48;6.78;;;;;;;35.53;32.98;99150.50;5092721;28;20253;-71
2022/05/28 07:58:57;;;;;;;15.00;5.90;;;;;;;35.46;32.43;99141.28;5092509;28;20191;-71
2022/05/28 08:01:26;;;;;;;19.58;6.85;;;;;;;35.24;32.96;99131.00;5092598;28;20221;-71
2022/05/28 08:03:54;;;;;;;8.43;6.13;;;;;;;35.14;34.26;99123.28;5092693;28;20199;-71
2022/05/28 08:06:21;;;;;;;13.95;6.70;;;;;;;35.10;34.38;99119.66;5092922;28;20195;-71
2022/05/28 08:08:51;;;;;;;16.17;6.35;;;;;;;35.09;33.63;99112.56;5093260;28;20670;-71
2022/05/28 08:11:18;;;;;;;13.05;5.68;;;;;;;34.97;33.70;99108.00;5091895;28;20697;-71
2022/05/28 08:13:46;;;;;;;6.20;5.68;;;;;;;34.84;33.95;99103.00;5091541;28;20240;-70
2022/05/28 08:16:13;;;;;;;7.00;5.32;;;;;;;34.63;33.98;99100.63;5092278;28;20613;-71
2022/05/28 08:18:40;;;;;;;9.60;5.47;;;;;;;34.43;34.94;99084.41;5092065;28;20655;-71
2022/05/28 08:23:53;;;;;;;7.78;5.90;;;;;;;34.40;34.57;99083.19;5092404;28;20182;-70
2022/05/28 08:26:20;;;;;;;6.32;5.72;;;;;;;34.26;34.73;99062.75;5091791;28;20650;-71
2022/05/28 08:28:50;;;;;;;8.25;5.57;;;;;;;34.25;34.69;99069.44;5091834;28;20217;-71
2022/05/28 08:31:17;;;;;;;8.25;5.07;;;;;;;34.22;35.97;99064.63;5091898;28;20218;-71
2022/05/28 08:33:45;;;;;;;11.85;5.22;;;;;;;34.25;35.49;99056.41;5092071;28;20191;-71
2022/05/28 08:36:12;;;;;;;6.45;5.88;;;;;;;34.34;35.71;99062.56;5091945;28;20191;-71
2022/05/28 08:38:39;;;;;;;7.18;5.38;;;;;;;34.34;35.13;99056.25;5091242;28;20196;-72
2022/05/28 08:41:12;;;;;;;10.73;5.70;;;;;;;34.24;35.28;99054.00;5091505;28;20187;-72
2022/05/28 08:43:42;;;;;;;7.63;5.65;;;;;;;34.49;33.77;99055.38;5092131;28;20202;-71
2022/05/28 08:46:13;;;;;;;15.07;6.22;;;;;;;34.84;33.44;99061.59;5091950;28;20563;-71
2022/05/28 08:48:46;;;;;;;10.32;5.75;;;;;;;35.16;32.87;99058.25;5091979;28;20183;-71
2022/05/28 08:51:19;;;;;;;9.18;5.38;;;;;;;35.20;33.12;99059.13;5091992;28;20222;-71
2022/05/28 08:53:52;;;;;;;9.70;5.57;;;;;;;35.28;32.94;99060.06;5091751;28;20183;-71
2022/05/28 08:56:26;;;;;;;6.40;5.63;;;;;;;35.31;33.32;99060.13;5092146;28;20180;-71
2022/05/28 08:59:06;;;;;;;6.13;5.47;;;;;;;35.51;32.49;99053.34;5092197;28;20260;-71
2022/05/28 09:01:37;;;;;;;7.80;5.07;;;;;;;35.57;32.72;99042.78;5092024;28;20895;-71
2022/05/28 09:04:07;;;;;;;26.63;6.72;;;;;;;35.80;32.69;99026.97;5091388;28;20183;-71
2022/05/28 09:06:38;;;;;;;7.13;5.07;;;;;;;36.02;31.04;99024.13;5091765;28;20191;-72
2022/05/28 09:09:08;;;;;;;24.08;7.10;;;;;;;36.32;31.25;99016.63;5091916;28;20191;-72
2022/05/28 09:11:37;;;;;;;14.75;5.57;;;;;;;36.59;30.55;99014.56;5091016;28;20223;-72
2022/05/28 09:14:14;;;;;;;9.73;6.38;;;;;;;36.74;29.84;99006.03;5091399;28;20213;-72
2022/05/28 09:16:45;;;;;;;8.15;5.10;;;;;;;36.68;30.55;99007.56;5091523;28;20363;-72
2022/05/28 09:19:17;;;;;;;6.00;5.28;;;;;;;36.44;30.18;99001.72;5091408;28;20192;-72
2022/05/28 09:21:45;;;;;;;12.45;5.53;;;;;;;36.35;30.21;99009.53;5092312;28;20252;-72
2022/05/28 09:24:16;;;;;;;8.93;4.90;;;;;;;36.39;30.47;99004.84;5093895;28;20658;-72
2022/05/28 09:26:58;;;;;;;5.80;4.72;;;;;;;36.21;29.82;99009.34;5096526;28;20187;-72
2022/05/28 09:29:36;;;;;;;6.75;5.95;;;;;;;36.28;30.16;99018.53;5095814;28;20241;-72
2022/05/28 09:32:14;;;;;;;8.00;5.65;;;;;;;36.20;30.23;99018.78;5096142;28;20252;-72
2022/05/28 09:34:58;;;;;;;8.70;5.82;;;;;;;35.87;30.88;99015.97;5095269;28;20237;-72
2022/05/28 09:37:37;;;;;;;13.07;5.82;;;;;;;35.44;33.17;99019.28;5095346;28;20312;-72
2022/05/28 09:40:11;;;;;;;24.08;6.32;;;;;;;35.07;32.61;99021.78;5095514;28;20244;-72
2022/05/28 09:43:08;;;;;;;9.93;5.93;;;;;;;34.47;34.72;99019.06;5094881;28;20193;-72
2022/05/28 09:45:46;;;;;;;18.15;7.93;;;;;;;34.28;36.07;99016.28;5094635;28;20238;-72
2022/05/28 09:48:24;;;;;;;7.85;7.07;;;;;;;33.76;37.23;98993.88;5095581;28;20655;-73
2022/05/28 09:50:51;;;;;;;12.10;7.50;;;;;;;33.41;37.90;99001.31;5095723;28;20260;-73
2022/05/28 09:56:16;;;;;;;14.07;6.47;;;;;;;32.98;39.75;99008.53;5095178;28;20178;-73
2022/05/28 09:58:43;;;;;;;14.73;7.10;;;;;;;32.84;40.34;98999.91;5095446;28;20183;-73
2022/05/28 10:01:14;;;;;;;11.30;7.47;;;;;;;32.62;41.25;99005.19;5095230;28;20191;-74
2022/05/28 10:06:30;;;;;;;20.73;9.60;;;;;;;32.36;42.08;98974.59;5095053;28;20684;-73
2022/05/28 10:08:57;;;;;;;16.50;7.37;;;;;;;32.34;41.88;98983.19;5094774;28;20261;-73
2022/05/28 10:11:25;;;;;;;11.53;6.63;;;;;;;32.15;41.98;98996.75;5094870;28;20191;-73
2022/05/28 10:13:53;;;;;;;15.90;7.30;;;;;;;32.01;42.33;99001.06;5095893;28;20191;-74
2022/05/28 10:16:24;;;;;;;19.80;7.17;;;;;;;31.95;43.13;99007.94;5095017;28;20196;-73
2022/05/28 10:18:56;;;;;;;13.00;6.70;;;;;;;31.90;43.39;99022.72;5094534;28;20240;-73
2022/05/28 10:21:30;;;;;;;12.77;7.03;;;;;;;31.79;43.53;99023.53;5094424;28;20190;-74
2022/05/28 10:24:01;;;;;;;13.03;7.47;;;;;;;31.70;43.76;99034.63;5095336;28;20187;-74
2022/05/28 10:26:31;;;;;;;19.13;7.70;;;;;;;31.48;43.76;99031.56;5094154;28;20607;-75
2022/05/28 10:29:01;;;;;;;13.37;6.93;;;;;;;31.28;43.75;99033.25;5094038;28;20248;-75
2022/05/28 10:31:32;;;;;;;11.73;6.80;;;;;;;30.96;44.92;99041.56;5094805;28;20635;-73
2022/05/28 10:34:00;;;;;;;9.20;6.67;;;;;;;30.75;45.58;99027.91;5094582;28;20194;-74
2022/05/28 10:36:30;;;;;;;15.77;7.67;;;;;;;30.60;46.09;99023.03;5093825;28;20187;-73
2022/05/28 10:39:08;;;;;;;24.43;8.13;;;;;;;30.38;46.99;99020.66;5094142;28;20191;-73
2022/05/28 10:41:43;;;;;;;18.43;6.97;;;;;;;30.28;47.60;99014.78;5094595;28;20199;-76
2022/05/28 10:44:12;;;;;;;18.37;7.10;;;;;;;30.13;47.57;99010.69;5094249;28;20273;-72
2022/05/28 10:47:09;;;;;;;7.37;5.20;;;;;;;29.99;48.04;99001.97;5093691;28;20663;-74
2022/05/28 10:49:47;;;;;;;6.67;5.37;;;;;;;29.94;47.44;98995.88;5086287;28;20231;-71
2022/05/28 10:52:25;;;;;;;6.37;5.70;;;;;;;29.88;48.32;99011.72;5081659;28;20204;-75
2022/05/28 10:55:09;;;;;;;6.67;6.03;;;;;;;29.87;48.66;99012.03;5088533;28;20183;-76
2022/05/28 10:58:14;;;;;;;10.23;7.13;;;;;;;29.82;49.27;99007.56;5093751;28;20184;-73
2022/05/28 11:00:58;;;;;;;27.27;15.40;;;;;;;29.84;48.75;99015.47;5052006;28;20195;-75
2022/05/28 11:04:03;;;;;;;19.17;10.10;;;;;;;29.79;49.11;99002.75;5093633;28;20196;-74
2022/05/28 11:06:56;;;;;;;11.90;7.53;;;;;;;29.70;50.11;98999.28;5078004;28;20195;-73
2022/05/28 11:09:31;;;;;;;15.50;7.33;;;;;;;29.67;49.85;99001.91;5073759;28;20191;-73
2022/05/28 11:12:11;;;;;;;8.67;7.00;;;;;;;29.60;49.29;98991.44;5090156;28;20187;-74
2022/05/28 11:15:02;;;;;;;17.03;9.33;;;;;;;29.54;49.45;98970.84;5093512;28;20564;-74
2022/05/28 11:17:43;;;;;;;19.07;9.30;;;;;;;29.43;49.29;98961.41;5060394;28;20724;-77
2022/05/28 11:20:21;;;;;;;11.17;8.40;;;;;;;29.35;49.55;98959.53;5093859;28;20184;-78
2022/05/28 11:23:01;;;;;;;11.97;8.90;;;;;;;29.26;50.08;98939.63;5093581;28;20241;-73
2022/05/28 11:25:41;;;;;;;15.00;7.90;;;;;;;29.36;50.76;98946.66;5073336;28;20211;-73
2022/05/28 11:28:31;;;;;;;12.83;7.77;;;;;;;29.36;50.61;98958.44;5073365;28;20241;-74
2022/05/28 11:31:07;;;;;;;13.43;7.60;;;;;;;29.33;50.78;98961.00;5073131;28;20238;-75
2022/05/28 11:33:38;;;;;;;24.00;8.70;;;;;;;29.33;51.72;98978.25;5072736;28;20211;-75
2022/05/28 11:36:10;;;;;;;14.93;7.13;;;;;;;29.33;52.51;98972.75;5073228;28;20237;-75
2022/05/28 11:38:42;;;;;;;16.53;7.07;;;;;;;29.31;53.19;98958.59;5072827;28;20709;-75
2022/05/28 11:41:15;;;;;;;19.70;7.33;;;;;;;29.28;53.06;98962.00;5073066;28;20718;-74
2022/05/28 11:43:49;;;;;;;20.77;7.43;;;;;;;29.18;52.84;98954.16;5073087;28;20246;-76
2022/05/28 11:46:24;;;;;;;26.40;8.23;;;;;;;29.19;53.44;98945.63;5072832;28;20194;-75
2022/05/28 11:51:52;;;;;;;22.40;9.33;;;;;;;29.06;55.04;98952.16;5072720;28;20210;-74
2022/05/28 11:54:26;;;;;;;14.27;9.40;;;;;;;28.92;55.46;98956.22;5072724;28;20187;-75
2022/05/28 11:56:58;;;;;;;12.87;8.17;;;;;;;28.72;55.96;98956.94;5072251;28;20637;-75